aviador You're here:

ZBAA Decoded Metar

BEIJING in CHINA
Report Time2017-04-29 17:30:00
UTC Time2017-04-29 17:45:39
Flight Rules vfr VFR
Wind350° at 6 kt
W.Decomp.*RWY 36: 6.0 kt HW 0.4 kt LCW
RWY 01: 5.8 kt HW 1.5 kt LCW
W.Rank350° ranks 3
Current wind is below 350° avg. (6.7)
Visibility9999 m
Phenomena:N/A
Clouds:N/A
Expected CloudBase > 4,800 ft AGL from Temp-Dew spread
CeilingNone
Temp18°C (ISA +3)
Dew Point06°C (46% RH)
AAT15.0°C
QNH1002 hPa
Density Alt974 ft
Elevation98 ft
Report Wrong Elevation
Raw Report
ZBAA 291730Z 35003MPS CAVOK 18/06 Q1002 NOSIG=

Extra information for ZBAA:More info

Metar Taf Metar & Taf Last 4 Metars F.Rules Stats Wind Profile Meteogram Temp Stats Airport Information Weather charts Add Link Nearby VenuesMetar ALERT Operation Metar Decoded Social comments